Terminal Aerodrome Forecast
Issued by NWS

Home | Current Version | Previous Version | Text Only | Print | Product List | Glossary On
Versions: 1 2 3 4 5 6 7 8 9 10 11 12 13 14 15 16 17 18
414
FTUS41 KBGM 211720
TAFRME
TAF
KRME 211720Z 2118/2218 19010KT P6SM SKC
     FM220200 17006KT P6SM BKN150
     FM221000 26006KT 4SM -SHRASN OVC015
     FM221400 28010KT P6SM BKN025=

USA.gov is the U.S. government's official web portal to all federal, state and local government web resources and services.